Time;durP1;ratioP1;P1;durP2;ratioP2;P2;SDS_P1;SDS_P2;PMS_P1;PMS_P2;Temp;Humidity;BMP_temperature;BMP_pressure;BME280_temperature;BME280_humidity;BME280_pressure;Samples;Min_cycle;Max_cycle;Signal;HPM_P1;HPM_P2
2022/03/26 00:00:19;;;;;;;25.13;12.97;;;7.30;99.90;;;;;;5016797;28;20268;-76
2022/03/26 00:03:04;;;;;;;21.90;10.97;;;7.20;99.90;;;;;;5017659;28;20192;-76
2022/03/26 00:05:48;;;;;;;18.23;10.73;;;7.20;99.90;;;;;;5012562;28;20204;-76
2022/03/26 00:08:32;;;;;;;25.47;11.07;;;7.10;99.90;;;;;;5014257;28;20204;-75
2022/03/26 00:11:16;;;;;;;22.17;11.00;;;7.10;99.90;;;;;;5014006;28;20300;-76
2022/03/26 00:14:00;;;;;;;21.47;10.97;;;7.00;99.90;;;;;;5022780;28;20211;-76
2022/03/26 00:16:45;;;;;;;25.57;11.93;;;6.90;99.90;;;;;;5017795;28;20264;-78
2022/03/26 00:19:29;;;;;;;21.30;10.77;;;6.90;99.90;;;;;;5015698;28;20272;-75
2022/03/26 00:22:13;;;;;;;19.57;10.90;;;6.90;99.90;;;;;;5021015;28;20185;-75
2022/03/26 00:24:57;;;;;;;21.80;11.37;;;6.90;99.90;;;;;;5013669;28;20292;-76
2022/03/26 00:27:41;;;;;;;22.03;11.23;;;6.80;99.90;;;;;;5016357;28;20273;-77
2022/03/26 00:30:26;;;;;;;25.37;11.60;;;6.80;99.90;;;;;;5016941;28;20764;-75
2022/03/26 00:33:10;;;;;;;17.97;10.57;;;6.70;99.90;;;;;;5013476;28;20223;-75
2022/03/26 00:35:54;;;;;;;24.07;11.63;;;6.70;99.90;;;;;;5031585;28;20234;-78
2022/03/26 00:38:39;;;;;;;24.50;10.70;;;6.60;99.90;;;;;;5029948;28;20196;-76
2022/03/26 00:41:23;;;;;;;20.00;10.63;;;6.60;99.90;;;;;;5031021;28;20227;-75
2022/03/26 00:44:08;;;;;;;21.73;11.23;;;6.60;99.90;;;;;;5018761;28;20675;-75
2022/03/26 00:46:52;;;;;;;21.30;12.23;;;6.60;99.90;;;;;;5022525;28;20196;-77
2022/03/26 00:49:36;;;;;;;24.60;11.33;;;6.50;99.90;;;;;;5027122;28;20207;-76
2022/03/26 00:52:22;;;;;;;24.10;12.10;;;6.50;99.90;;;;;;5021426;28;20184;-75
2022/03/26 00:55:07;;;;;;;20.23;11.27;;;6.50;99.90;;;;;;5019085;28;20582;-76
2022/03/26 00:57:51;;;;;;;23.53;10.93;;;6.30;99.90;;;;;;5014298;28;20169;-75
2022/03/26 01:00:35;;;;;;;25.17;11.33;;;6.30;99.90;;;;;;5019475;28;20242;-76
2022/03/26 01:03:20;;;;;;;23.43;11.23;;;6.30;99.90;;;;;;5015855;28;20254;-75
2022/03/26 01:06:04;;;;;;;21.03;10.70;;;6.30;99.90;;;;;;5012473;28;20184;-75
2022/03/26 01:08:49;;;;;;;19.00;10.87;;;6.30;99.90;;;;;;5009874;28;20180;-76
2022/03/26 01:11:34;;;;;;;24.33;10.87;;;6.20;99.90;;;;;;4994620;28;20275;-79
2022/03/26 01:14:18;;;;;;;24.53;10.90;;;6.20;99.90;;;;;;5011982;28;20242;-75
2022/03/26 01:17:03;;;;;;;19.23;10.17;;;6.20;99.90;;;;;;5023601;28;20227;-75
2022/03/26 01:19:47;;;;;;;21.80;10.07;;;6.10;99.90;;;;;;5028515;28;20311;-77
2022/03/26 01:22:32;;;;;;;19.00;9.90;;;6.10;99.90;;;;;;5017739;28;20251;-76
2022/03/26 01:25:16;;;;;;;16.50;9.87;;;6.10;99.90;;;;;;5012294;28;20231;-75
2022/03/26 01:28:01;;;;;;;18.00;9.97;;;6.10;99.90;;;;;;5012246;28;20254;-76
2022/03/26 01:30:46;;;;;;;16.80;9.87;;;6.00;99.90;;;;;;5011461;28;20247;-76
2022/03/26 01:33:30;;;;;;;20.70;10.07;;;6.00;99.90;;;;;;5011524;28;20263;-77
2022/03/26 01:36:15;;;;;;;21.70;9.50;;;5.90;99.90;;;;;;5012811;28;20190;-77
2022/03/26 01:39:00;;;;;;;21.00;10.17;;;5.90;99.90;;;;;;5010585;28;20184;-76
2022/03/26 01:41:45;;;;;;;19.20;10.67;;;5.90;99.90;;;;;;5027763;28;20267;-76
2022/03/26 01:44:29;;;;;;;20.03;10.40;;;5.80;99.90;;;;;;5019961;28;20699;-77
2022/03/26 01:47:14;;;;;;;23.40;10.30;;;5.80;99.90;;;;;;5016306;28;20307;-75
2022/03/26 01:49:58;;;;;;;23.80;10.33;;;5.80;99.90;;;;;;5021579;28;20211;-75
2022/03/26 01:52:42;;;;;;;16.50;9.93;;;5.70;99.90;;;;;;5011664;28;20589;-75
2022/03/26 01:55:28;;;;;;;23.23;10.53;;;5.70;99.90;;;;;;5013006;28;20208;-75
2022/03/26 01:58:13;;;;;;;24.17;10.77;;;5.70;99.90;;;;;;5012542;28;20227;-76
2022/03/26 02:00:57;;;;;;;25.53;10.47;;;5.60;99.90;;;;;;5026840;28;20234;-75
2022/03/26 02:03:42;;;;;;;20.07;10.00;;;5.60;99.90;;;;;;5019190;28;20233;-75
2022/03/26 02:06:34;;;;;;;19.67;9.67;;;5.50;99.90;;;;;;5015604;28;20173;-77
2022/03/26 02:09:18;;;;;;;18.90;9.43;;;5.50;99.90;;;;;;5018710;28;20660;-77
2022/03/26 02:12:21;;;;;;;17.47;9.77;;;5.50;99.90;;;;;;5026719;28;20257;-75
2022/03/26 02:15:09;;;;;;;23.07;9.63;;;5.40;99.90;;;;;;5017134;28;20318;-76
2022/03/26 02:17:53;;;;;;;17.53;9.60;;;5.40;99.90;;;;;;5021417;28;20242;-77
2022/03/26 02:20:39;;;;;;;19.60;10.37;;;5.30;99.90;;;;;;5011244;28;20247;-75
2022/03/26 02:23:23;;;;;;;17.57;10.43;;;5.30;99.90;;;;;;5010306;28;20214;-75
2022/03/26 02:26:07;;;;;;;19.53;9.57;;;5.20;99.90;;;;;;5019544;28;20671;-75
2022/03/26 02:28:53;;;;;;;21.07;9.03;;;5.20;99.90;;;;;;5010554;28;20230;-76
2022/03/26 02:31:38;;;;;;;19.87;10.40;;;5.20;99.90;;;;;;5023729;28;20659;-74
2022/03/26 02:34:24;;;;;;;18.93;10.47;;;5.10;99.90;;;;;;5015512;28;20291;-78
2022/03/26 02:37:08;;;;;;;25.23;9.77;;;5.10;99.90;;;;;;5016799;28;20179;-76
2022/03/26 02:39:53;;;;;;;22.20;9.67;;;5.00;99.90;;;;;;5018650;28;20233;-74
2022/03/26 02:42:37;;;;;;;19.33;10.07;;;5.00;99.90;;;;;;5024501;28;20210;-75
2022/03/26 02:45:22;;;;;;;19.77;9.67;;;5.00;99.90;;;;;;5016567;28;20190;-77
2022/03/26 02:48:07;;;;;;;19.17;9.93;;;5.00;99.90;;;;;;5012911;28;20207;-76
2022/03/26 02:50:51;;;;;;;18.53;9.77;;;4.90;99.90;;;;;;5013958;28;20269;-75
2022/03/26 02:53:36;;;;;;;16.57;10.03;;;4.90;99.90;;;;;;5023764;28;20218;-75
2022/03/26 02:56:20;;;;;;;23.50;11.07;;;4.80;99.90;;;;;;5011772;28;20187;-75
2022/03/26 02:59:04;;;;;;;17.77;10.40;;;4.80;99.90;;;;;;4993820;28;20196;-75
2022/03/26 03:01:49;;;;;;;18.77;10.03;;;4.80;99.90;;;;;;5025839;28;20202;-75
2022/03/26 03:04:34;;;;;;;20.93;10.20;;;4.70;99.90;;;;;;5003464;28;20191;-76
2022/03/26 03:07:18;;;;;;;22.13;11.30;;;4.70;99.90;;;;;;5021752;28;20231;-75
2022/03/26 03:10:04;;;;;;;20.57;10.53;;;4.80;99.90;;;;;;5017898;28;20217;-75
2022/03/26 03:12:49;;;;;;;23.70;11.27;;;4.80;99.90;;;;;;5015151;28;20219;-75
2022/03/26 03:15:33;;;;;;;25.80;11.40;;;4.80;99.90;;;;;;5019646;28;20230;-77
2022/03/26 03:18:18;;;;;;;21.73;10.93;;;4.80;99.90;;;;;;5021263;28;20189;-77
2022/03/26 03:21:03;;;;;;;20.60;10.77;;;4.80;99.90;;;;;;5015190;28;20227;-76
2022/03/26 03:23:47;;;;;;;22.37;10.10;;;4.70;99.90;;;;;;5026169;28;20199;-77
2022/03/26 03:26:31;;;;;;;20.07;11.93;;;4.70;99.90;;;;;;5014835;28;20190;-76
2022/03/26 03:29:15;;;;;;;25.63;11.33;;;4.70;99.90;;;;;;5016015;28;20553;-75
2022/03/26 03:31:59;;;;;;;20.37;10.60;;;4.70;99.90;;;;;;5015396;28;20283;-76
2022/03/26 03:34:44;;;;;;;23.10;12.27;;;4.70;99.90;;;;;;5024102;28;20215;-75
2022/03/26 03:37:28;;;;;;;28.03;11.67;;;4.70;99.90;;;;;;5013649;28;20220;-76
2022/03/26 03:40:13;;;;;;;22.53;11.20;;;4.70;99.90;;;;;;5020848;28;20210;-75
2022/03/26 03:42:57;;;;;;;18.13;11.10;;;4.70;99.90;;;;;;5020192;28;20202;-75
2022/03/26 03:45:41;;;;;;;23.70;12.07;;;4.60;99.90;;;;;;5028411;28;20234;-75
2022/03/26 03:48:26;;;;;;;18.90;10.77;;;4.60;99.90;;;;;;5012751;28;20219;-76
2022/03/26 03:51:10;;;;;;;20.27;11.43;;;4.60;99.90;;;;;;5017908;28;20218;-77
2022/03/26 03:53:54;;;;;;;20.80;11.73;;;4.60;99.90;;;;;;5010095;28;20180;-75
2022/03/26 03:56:38;;;;;;;26.20;11.40;;;4.50;99.90;;;;;;5013467;28;20191;-77
2022/03/26 03:59:22;;;;;;;17.17;10.67;;;4.60;99.90;;;;;;5011790;28;20212;-77
2022/03/26 04:02:10;;;;;;;18.77;11.20;;;4.50;99.90;;;;;;5022088;28;20593;-77
2022/03/26 04:04:55;;;;;;;16.77;10.40;;;4.50;99.90;;;;;;5013633;28;20203;-75
2022/03/26 04:07:43;;;;;;;22.37;11.63;;;4.50;99.90;;;;;;5014369;28;20262;-75
2022/03/26 04:10:27;;;;;;;24.00;11.63;;;4.50;99.90;;;;;;5019235;28;20221;-78
2022/03/26 04:13:12;;;;;;;25.00;12.00;;;4.50;99.90;;;;;;5024225;28;20229;-76
2022/03/26 04:15:55;;;;;;;18.27;11.53;;;4.50;99.90;;;;;;5014313;28;20270;-75
2022/03/26 04:18:40;;;;;;;19.70;11.00;;;4.40;99.90;;;;;;5011338;28;20180;-77
2022/03/26 04:21:25;;;;;;;16.87;11.03;;;4.40;99.90;;;;;;5015945;28;20269;-76
2022/03/26 04:24:10;;;;;;;26.57;13.20;;;4.40;99.90;;;;;;5014319;28;20270;-77
2022/03/26 04:26:54;;;;;;;26.63;13.43;;;4.40;99.90;;;;;;5014094;28;20182;-75
2022/03/26 04:29:39;;;;;;;26.67;12.57;;;4.40;99.90;;;;;;5008780;28;20211;-75
2022/03/26 04:32:23;;;;;;;22.40;12.57;;;4.40;99.90;;;;;;5012708;28;20703;-74
2022/03/26 04:35:07;;;;;;;24.40;13.10;;;4.40;99.90;;;;;;5014602;28;20274;-74
2022/03/26 04:37:55;;;;;;;23.13;13.17;;;4.40;99.90;;;;;;5012883;28;20575;-75
2022/03/26 04:40:39;;;;;;;27.83;14.20;;;4.40;99.90;;;;;;5016765;28;20222;-74
2022/03/26 04:43:24;;;;;;;24.17;13.37;;;4.50;99.90;;;;;;5017966;28;20190;-74
2022/03/26 04:46:08;;;;;;;32.10;15.10;;;4.50;99.90;;;;;;5022610;28;20200;-74
2022/03/26 04:48:52;;;;;;;30.00;13.10;;;4.50;99.90;;;;;;5020515;28;20212;-73
2022/03/26 04:51:36;;;;;;;25.50;15.23;;;4.50;99.90;;;;;;5012414;28;20292;-73
2022/03/26 04:54:20;;;;;;;34.17;14.63;;;4.50;99.90;;;;;;5019590;28;20356;-74
2022/03/26 04:57:05;;;;;;;27.83;14.27;;;4.50;99.90;;;;;;5013030;28;20189;-74
2022/03/26 04:59:49;;;;;;;24.50;13.53;;;4.50;99.90;;;;;;5002535;28;20214;-74
2022/03/26 05:02:35;;;;;;;29.40;15.13;;;4.40;99.90;;;;;;5045885;28;20216;-74
2022/03/26 05:05:19;;;;;;;33.43;15.93;;;4.40;99.90;;;;;;5021751;28;20205;-74
2022/03/26 05:08:03;;;;;;;27.57;15.17;;;4.40;99.90;;;;;;5011655;28;20303;-75
2022/03/26 05:10:49;;;;;;;26.83;13.73;;;4.40;99.90;;;;;;5010799;28;20224;-74
2022/03/26 05:13:33;;;;;;;26.47;14.20;;;4.30;99.90;;;;;;5016772;28;20204;-74
2022/03/26 05:16:18;;;;;;;27.83;14.27;;;4.30;99.90;;;;;;5020725;28;20210;-74
2022/03/26 05:19:03;;;;;;;27.97;13.70;;;4.30;99.90;;;;;;5021459;28;20233;-74
2022/03/26 05:21:47;;;;;;;26.83;12.90;;;4.30;99.90;;;;;;5011598;28;20230;-74
2022/03/26 05:24:33;;;;;;;28.73;13.27;;;4.20;99.90;;;;;;5017588;28;20217;-74
2022/03/26 05:27:17;;;;;;;29.43;13.87;;;4.20;99.90;;;;;;5013452;28;20222;-75
2022/03/26 05:30:03;;;;;;;24.80;13.03;;;4.20;99.90;;;;;;5010778;28;20250;-75
2022/03/26 05:32:48;;;;;;;23.93;12.63;;;4.20;99.90;;;;;;5012176;28;20242;-74
2022/03/26 05:35:32;;;;;;;27.90;13.17;;;4.20;99.90;;;;;;5012892;28;20197;-74
2022/03/26 05:38:17;;;;;;;25.87;13.83;;;4.10;99.90;;;;;;5013693;28;20177;-75
2022/03/26 05:41:01;;;;;;;25.53;13.03;;;4.10;99.90;;;;;;5042851;28;20221;-74
2022/03/26 05:43:45;;;;;;;26.80;14.03;;;4.10;99.90;;;;;;5021177;28;20186;-74
2022/03/26 05:46:29;;;;;;;31.77;14.60;;;4.10;99.90;;;;;;5011341;28;20265;-74
2022/03/26 05:49:13;;;;;;;27.03;14.17;;;4.10;99.90;;;;;;5017748;28;20230;-75
2022/03/26 05:51:57;;;;;;;26.13;13.93;;;4.10;99.90;;;;;;5024631;28;20200;-75
2022/03/26 05:54:42;;;;;;;25.93;14.00;;;4.10;99.90;;;;;;4992918;28;20194;-74
2022/03/26 05:57:26;;;;;;;26.80;14.67;;;4.00;99.90;;;;;;4998908;28;20189;-74
2022/03/26 06:00:11;;;;;;;28.97;14.70;;;4.10;99.90;;;;;;5012804;28;20213;-75
2022/03/26 06:02:55;;;;;;;26.37;13.97;;;4.00;99.90;;;;;;5011914;28;20243;-74
2022/03/26 06:05:39;;;;;;;26.43;14.27;;;4.00;99.90;;;;;;5005789;28;20211;-74
2022/03/26 06:08:23;;;;;;;32.07;15.20;;;4.00;99.90;;;;;;5018668;28;20200;-74
2022/03/26 06:11:07;;;;;;;29.80;15.67;;;4.10;99.90;;;;;;5019080;28;20229;-75
2022/03/26 06:13:52;;;;;;;30.07;15.23;;;4.10;99.90;;;;;;5019259;28;20182;-75
2022/03/26 06:16:36;;;;;;;29.77;14.73;;;4.10;99.90;;;;;;5025370;28;20226;-74
2022/03/26 06:19:20;;;;;;;27.77;13.70;;;4.10;99.90;;;;;;5038417;28;20181;-74
2022/03/26 06:22:05;;;;;;;34.40;15.77;;;4.10;99.90;;;;;;5031873;28;20627;-74
2022/03/26 06:24:49;;;;;;;30.50;14.93;;;4.10;99.90;;;;;;5017695;28;20291;-73
2022/03/26 06:27:33;;;;;;;26.53;15.27;;;4.10;99.90;;;;;;5010085;28;20206;-74
2022/03/26 06:30:18;;;;;;;31.47;15.37;;;4.20;99.90;;;;;;5008977;28;20211;-74
2022/03/26 06:33:02;;;;;;;31.73;16.83;;;4.20;99.90;;;;;;5010234;28;20186;-74
2022/03/26 06:35:46;;;;;;;32.00;16.57;;;4.20;99.90;;;;;;5010156;28;20242;-74
2022/03/26 06:38:32;;;;;;;43.73;18.70;;;4.20;99.90;;;;;;5016631;28;20696;-76
2022/03/26 06:41:17;;;;;;;43.03;21.20;;;4.30;99.90;;;;;;5029271;28;20253;-74
2022/03/26 06:44:01;;;;;;;39.87;19.87;;;4.30;99.90;;;;;;5023136;28;20208;-73
2022/03/26 06:46:45;;;;;;;37.47;20.23;;;4.30;99.90;;;;;;5009212;28;20246;-75
2022/03/26 06:49:31;;;;;;;41.90;21.53;;;4.40;99.90;;;;;;5019836;28;20198;-74
2022/03/26 06:52:15;;;;;;;43.83;22.83;;;4.40;99.90;;;;;;5017856;28;20289;-74
2022/03/26 06:55:02;;;;;;;47.50;23.03;;;4.50;99.90;;;;;;5010148;28;20561;-74
2022/03/26 06:57:46;;;;;;;46.53;22.77;;;4.50;99.90;;;;;;5009705;28;20183;-72
2022/03/26 07:00:30;;;;;;;44.43;23.00;;;4.60;99.90;;;;;;5013767;28;20226;-74
2022/03/26 07:03:14;;;;;;;39.60;22.13;;;4.70;99.90;;;;;;5012915;28;20204;-73
2022/03/26 07:05:59;;;;;;;51.70;23.57;;;4.70;99.90;;;;;;5015328;28;20238;-75
2022/03/26 07:08:43;;;;;;;48.47;24.90;;;4.70;99.90;;;;;;5005218;28;20674;-73
2022/03/26 07:11:27;;;;;;;53.50;27.20;;;4.80;99.90;;;;;;5014993;28;20211;-75
2022/03/26 07:14:11;;;;;;;49.87;25.93;;;4.90;99.90;;;;;;5014583;28;20195;-74
2022/03/26 07:16:55;;;;;;;53.53;27.17;;;5.00;99.90;;;;;;5010456;28;20343;-74
2022/03/26 07:19:39;;;;;;;61.10;28.73;;;5.10;99.90;;;;;;5009632;28;20292;-74
2022/03/26 07:22:24;;;;;;;49.40;26.30;;;5.20;99.90;;;;;;5007699;28;20211;-74
2022/03/26 07:25:09;;;;;;;63.57;29.27;;;5.20;99.90;;;;;;5007805;28;20210;-74
2022/03/26 07:27:54;;;;;;;62.03;29.73;;;5.30;99.90;;;;;;5020085;28;20242;-75
2022/03/26 07:30:38;;;;;;;64.37;31.53;;;5.40;99.90;;;;;;5017303;28;20211;-74
2022/03/26 07:33:22;;;;;;;64.10;30.93;;;5.60;99.90;;;;;;4993957;28;20223;-74
2022/03/26 07:36:07;;;;;;;65.53;30.20;;;5.70;99.90;;;;;;5023618;28;20251;-74
2022/03/26 07:38:51;;;;;;;63.53;30.07;;;5.80;99.90;;;;;;5010469;28;20195;-73
2022/03/26 07:41:35;;;;;;;68.47;30.57;;;6.00;99.90;;;;;;5030421;28;20570;-74
2022/03/26 07:44:19;;;;;;;61.60;29.77;;;6.10;99.90;;;;;;5016533;28;20187;-73
2022/03/26 07:47:03;;;;;;;61.17;29.33;;;6.20;99.90;;;;;;5019803;28;20231;-75
2022/03/26 07:49:48;;;;;;;64.57;30.97;;;6.30;99.90;;;;;;5024256;28;20272;-74
2022/03/26 07:52:33;;;;;;;61.17;30.60;;;6.40;99.90;;;;;;5004405;28;20179;-74
2022/03/26 07:55:18;;;;;;;58.97;29.83;;;6.40;99.90;;;;;;5012260;28;20208;-74
2022/03/26 07:58:02;;;;;;;69.13;30.17;;;6.50;99.90;;;;;;5010598;28;20207;-74
2022/03/26 08:00:48;;;;;;;62.27;29.77;;;6.60;99.90;;;;;;5023313;28;20215;-74
2022/03/26 08:03:33;;;;;;;60.83;30.27;;;6.70;99.90;;;;;;5021813;28;20211;-74
2022/03/26 08:06:18;;;;;;;60.00;30.83;;;6.90;99.90;;;;;;5013073;28;20211;-74
2022/03/26 08:09:03;;;;;;;66.23;30.43;;;7.10;99.90;;;;;;5034283;28;20175;-74
2022/03/26 08:11:47;;;;;;;66.80;28.87;;;7.30;99.90;;;;;;5010856;28;20211;-74
2022/03/26 08:14:33;;;;;;;63.33;30.70;;;7.40;99.90;;;;;;5011584;28;20191;-74
2022/03/26 08:17:17;;;;;;;65.83;30.57;;;7.60;99.90;;;;;;5018145;28;20203;-74
2022/03/26 08:20:01;;;;;;;65.50;30.73;;;7.70;99.90;;;;;;5032955;28;20242;-74
2022/03/26 08:22:46;;;;;;;63.37;29.67;;;7.80;99.90;;;;;;5009176;28;20226;-74
2022/03/26 08:28:33;;;;;;;58.30;28.63;;;8.10;99.90;;;;;;5008501;28;20231;-74
2022/03/26 08:31:18;;;;;;;61.23;29.87;;;8.30;99.90;;;;;;5013278;28;20215;-75
2022/03/26 08:34:03;;;;;;;62.23;31.33;;;8.40;99.90;;;;;;5024035;28;20204;-74
2022/03/26 08:36:47;;;;;;;56.53;29.07;;;8.60;99.90;;;;;;4993197;28;20169;-74
2022/03/26 08:39:31;;;;;;;56.37;27.90;;;8.70;99.90;;;;;;5011253;28;20615;-74
2022/03/26 08:42:15;;;;;;;55.77;28.53;;;8.80;99.90;;;;;;5008144;28;20191;-73
2022/03/26 08:45:00;;;;;;;58.33;27.30;;;8.90;99.90;;;;;;5031310;28;20250;-73
2022/03/26 08:47:45;;;;;;;51.60;26.47;;;9.00;99.90;;;;;;5045460;28;20179;-73
2022/03/26 08:50:29;;;;;;;58.30;26.47;;;9.20;99.90;;;;;;5026912;28;20211;-74
2022/03/26 08:53:13;;;;;;;57.07;28.50;;;9.30;99.90;;;;;;5022817;28;20187;-74
2022/03/26 08:55:57;;;;;;;51.13;27.13;;;9.50;99.90;;;;;;5027039;28;20179;-74
2022/03/26 08:58:41;;;;;;;53.13;26.77;;;9.60;99.90;;;;;;5012166;28;20207;-74
2022/03/26 09:01:26;;;;;;;49.20;26.17;;;9.70;99.90;;;;;;5007685;28;20263;-74
2022/03/26 09:04:11;;;;;;;46.77;25.03;;;9.90;99.90;;;;;;5009148;28;20188;-74
2022/03/26 09:06:55;;;;;;;46.50;23.97;;;10.00;99.90;;;;;;5014613;28;20238;-74
2022/03/26 09:09:39;;;;;;;46.30;24.00;;;10.10;99.90;;;;;;5006967;28;20682;-74
2022/03/26 09:12:23;;;;;;;47.87;24.30;;;10.30;99.90;;;;;;5015027;28;20208;-74
2022/03/26 09:15:08;;;;;;;44.63;22.83;;;10.40;99.90;;;;;;5026580;28;20227;-75
2022/03/26 09:17:52;;;;;;;41.93;23.27;;;10.50;99.90;;;;;;5013424;28;20271;-75
2022/03/26 09:20:38;;;;;;;43.97;21.97;;;10.70;99.90;;;;;;5026570;28;20219;-75
2022/03/26 09:23:22;;;;;;;44.40;21.43;;;10.70;99.90;;;;;;5019675;28;20227;-75
2022/03/26 09:26:06;;;;;;;36.53;21.03;;;10.80;99.90;;;;;;5014114;28;20220;-75
2022/03/26 09:28:50;;;;;;;41.97;21.60;;;10.90;99.90;;;;;;5030530;28;20183;-75
2022/03/26 09:31:35;;;;;;;40.87;22.60;;;11.10;99.90;;;;;;5012759;28;20224;-75
2022/03/26 09:34:19;;;;;;;42.07;22.27;;;11.20;99.90;;;;;;5020851;28;20182;-75
2022/03/26 09:37:04;;;;;;;37.50;20.07;;;11.30;99.90;;;;;;5018456;28;20184;-75
2022/03/26 09:39:48;;;;;;;38.23;21.00;;;11.30;99.90;;;;;;5015583;28;20211;-75
2022/03/26 09:42:34;;;;;;;35.03;18.90;;;11.40;99.90;;;;;;5023661;28;20203;-75
2022/03/26 09:45:19;;;;;;;30.73;17.93;;;11.50;99.90;;;;;;5032167;28;20199;-75
2022/03/26 09:48:04;;;;;;;32.90;17.83;;;11.60;99.90;;;;;;5025119;28;20555;-75
2022/03/26 09:50:51;;;;;;;36.57;18.23;;;11.80;99.90;;;;;;5019946;28;20223;-75
2022/03/26 09:53:36;;;;;;;30.00;16.50;;;11.90;99.90;;;;;;5010883;28;20224;-75
2022/03/26 09:56:21;;;;;;;24.50;14.83;;;12.10;99.90;;;;;;5020285;28;20210;-76
2022/03/26 09:59:05;;;;;;;23.17;14.00;;;12.20;99.90;;;;;;5028652;28;20187;-76
2022/03/26 10:01:50;;;;;;;32.90;16.77;;;12.30;99.90;;;;;;5011185;28;20187;-76
2022/03/26 10:04:41;;;;;;;25.50;15.50;;;12.40;99.90;;;;;;5009427;28;20239;-75
2022/03/26 10:07:29;;;;;;;25.63;14.67;;;12.50;99.90;;;;;;5022278;28;20687;-75
2022/03/26 10:10:24;;;;;;;26.70;15.50;;;12.50;99.90;;;;;;5029888;28;20226;-75
2022/03/26 10:13:08;;;;;;;25.43;15.27;;;12.50;99.90;;;;;;5027566;28;20554;-75
2022/03/26 10:16:03;;;;;;;24.93;14.37;;;12.70;99.90;;;;;;5010215;28;20195;-76
2022/03/26 10:18:47;;;;;;;30.63;15.27;;;12.80;99.90;;;;;;5009331;28;20284;-75
2022/03/26 10:21:32;;;;;;;24.63;14.90;;;12.90;99.90;;;;;;5011881;28;20265;-75
2022/03/26 10:24:23;;;;;;;23.40;14.50;;;13.00;99.90;;;;;;5009965;28;20259;-75
2022/03/26 10:27:11;;;;;;;24.80;13.73;;;13.10;99.90;;;;;;5022939;28;20262;-75
2022/03/26 10:29:57;;;;;;;20.87;12.43;;;13.30;99.90;;;;;;5012219;28;20232;-75
2022/03/26 10:32:49;;;;;;;21.50;11.40;;;13.30;99.90;;;;;;5018511;28;20219;-76
2022/03/26 10:35:36;;;;;;;25.70;12.17;;;13.40;99.90;;;;;;5008733;28;20184;-76
2022/03/26 10:38:31;;;;;;;21.57;11.33;;;13.30;99.90;;;;;;5009908;28;20188;-77
2022/03/26 10:41:21;;;;;;;19.10;11.50;;;13.40;99.90;;;;;;5013465;28;20295;-76
2022/03/26 10:44:17;;;;;;;19.73;10.93;;;13.40;99.90;;;;;;5008899;28;20184;-76
2022/03/26 10:47:04;;;;;;;23.80;10.83;;;13.60;99.90;;;;;;5023768;28;20262;-76
2022/03/26 10:49:48;;;;;;;20.97;10.80;;;13.80;99.90;;;;;;5021164;28;20213;-75
2022/03/26 10:52:32;;;;;;;19.20;10.80;;;13.90;99.90;;;;;;5008745;28;20277;-76
2022/03/26 10:55:18;;;;;;;21.43;11.30;;;14.00;99.90;;;;;;5009741;28;20184;-76
2022/03/26 10:58:06;;;;;;;19.93;10.63;;;14.00;99.90;;;;;;5013408;28;20211;-75
2022/03/26 11:00:51;;;;;;;19.60;12.13;;;14.00;99.90;;;;;;5010582;28;20262;-75
2022/03/26 11:03:36;;;;;;;20.47;12.67;;;14.10;99.90;;;;;;5001170;28;20176;-75
2022/03/26 11:06:28;;;;;;;22.70;11.40;;;14.10;99.90;;;;;;5022358;28;20204;-75
2022/03/26 11:09:13;;;;;;;19.60;11.53;;;14.20;99.90;;;;;;5013414;28;20292;-75
2022/03/26 11:11:58;;;;;;;19.37;11.27;;;14.30;99.90;;;;;;5021603;28;20235;-76
2022/03/26 11:14:45;;;;;;;19.77;12.67;;;14.40;99.90;;;;;;5008702;28;20243;-75
2022/03/26 11:17:55;;;;;;;20.07;12.37;;;14.30;99.90;;;;;;5015620;28;20187;-75
2022/03/26 11:20:57;;;;;;;25.13;12.80;;;14.40;99.90;;;;;;5016893;28;20243;-76
2022/03/26 11:23:45;;;;;;;21.90;13.17;;;14.40;99.90;;;;;;5011832;28;20222;-75
2022/03/26 11:27:00;;;;;;;22.60;13.30;;;14.50;99.90;;;;;;5028063;28;20324;-75
2022/03/26 11:30:30;;;;;;;19.63;13.13;;;14.60;99.90;;;;;;5023900;28;20747;-76
2022/03/26 11:33:18;;;;;;;23.13;14.33;;;14.50;99.90;;;;;;5000782;28;20215;-76
2022/03/26 11:36:05;;;;;;;22.43;15.07;;;14.60;99.90;;;;;;5008039;28;20207;-76
2022/03/26 11:39:07;;;;;;;24.57;14.83;;;14.60;99.90;;;;;;5025330;28;20250;-76
2022/03/26 11:41:53;;;;;;;21.67;13.73;;;14.70;99.90;;;;;;5022307;28;20199;-76
2022/03/26 11:44:43;;;;;;;18.43;12.40;;;14.70;99.90;;;;;;5017323;28;20211;-76
2022/03/26 11:50:41;;;;;;;18.67;11.67;;;14.80;99.90;;;;;;5003604;28;20286;-75
2022/03/26 11:53:37;;;;;;;16.43;11.63;;;14.90;99.90;;;;;;5026333;28;20212;-76
2022/03/26 11:56:26;;;;;;;20.13;12.67;;;15.00;99.90;;;;;;5004451;28;20220;-76
2022/03/26 11:59:16;;;;;;;21.80;12.47;;;15.10;99.90;;;;;;5026749;28;20211;-76
2022/03/26 12:02:24;;;;;;;19.53;11.93;;;15.20;99.90;;;;;;5015000;28;20202;-76
2022/03/26 12:08:38;;;;;;;19.40;13.17;;;15.20;99.90;;;;;;5002587;28;20208;-77
2022/03/26 12:11:32;;;;;;;20.07;12.83;;;15.20;99.90;;;;;;5004817;28;20275;-76
2022/03/26 12:14:16;;;;;;;24.77;13.77;;;15.30;99.90;;;;;;5011586;28;20196;-76
2022/03/26 12:17:03;;;;;;;20.03;13.53;;;15.30;99.90;;;;;;5012809;28;20284;-76
2022/03/26 12:19:50;;;;;;;21.97;13.37;;;15.30;99.90;;;;;;5018125;28;20224;-76
2022/03/26 12:22:35;;;;;;;23.37;14.53;;;15.30;99.90;;;;;;5014851;28;20231;-76
2022/03/26 12:25:39;;;;;;;23.80;15.57;;;15.30;99.90;;;;;;5018771;28;20211;-76
2022/03/26 12:28:26;;;;;;;25.73;15.57;;;15.30;99.90;;;;;;5013009;28;20699;-76
2022/03/26 12:31:13;;;;;;;22.47;15.40;;;15.30;99.90;;;;;;5017207;28;20242;-76
2022/03/26 12:34:02;;;;;;;24.03;15.17;;;15.30;99.90;;;;;;5028698;28;20191;-77
2022/03/26 12:36:46;;;;;;;22.30;15.63;;;15.30;99.90;;;;;;5016739;28;20691;-75
2022/03/26 12:39:31;;;;;;;23.93;15.23;;;15.30;99.90;;;;;;5013418;28;20208;-77
2022/03/26 12:42:16;;;;;;;22.03;14.50;;;15.30;99.90;;;;;;5011219;28;20282;-76
2022/03/26 12:45:00;;;;;;;21.87;13.33;;;15.30;99.90;;;;;;5011149;28;20675;-77
2022/03/26 12:47:45;;;;;;;23.30;14.43;;;15.30;99.90;;;;;;5013144;28;20234;-76
2022/03/26 12:50:29;;;;;;;20.43;13.37;;;15.30;99.90;;;;;;5021106;28;20220;-76
2022/03/26 12:53:16;;;;;;;18.27;12.50;;;15.30;99.90;;;;;;5010371;28;20221;-75
2022/03/26 12:56:01;;;;;;;17.23;11.87;;;15.30;99.90;;;;;;5017338;28;20265;-77
2022/03/26 12:58:57;;;;;;;18.33;13.03;;;15.40;99.90;;;;;;5014210;28;20196;-77
2022/03/26 13:01:45;;;;;;;19.53;13.87;;;15.50;99.90;;;;;;5011026;28;20272;-76
2022/03/26 13:04:35;;;;;;;19.00;13.30;;;15.50;99.90;;;;;;5025350;28;20184;-77
2022/03/26 13:07:22;;;;;;;20.43;13.43;;;15.60;99.90;;;;;;5017465;28;20191;-77
2022/03/26 13:10:07;;;;;;;22.27;13.87;;;15.60;99.90;;;;;;5041247;28;20207;-76
2022/03/26 13:12:51;;;;;;;14.70;11.00;;;15.60;99.90;;;;;;4991976;28;20172;-76
2022/03/26 13:15:36;;;;;;;15.93;10.47;;;15.60;99.90;;;;;;5005290;28;20220;-76
2022/03/26 13:18:21;;;;;;;14.90;10.67;;;15.70;99.90;;;;;;5018602;28;20195;-76
2022/03/26 13:21:05;;;;;;;16.30;10.60;;;15.70;99.90;;;;;;5020886;28;20294;-78
2022/03/26 13:24:07;;;;;;;16.43;11.20;;;15.70;99.90;;;;;;5010545;28;20687;-78
2022/03/26 13:27:03;;;;;;;17.50;11.60;;;15.70;99.90;;;;;;4999481;28;20176;-76
2022/03/26 13:29:48;;;;;;;17.07;11.40;;;15.60;99.90;;;;;;5022029;28;20277;-78
2022/03/26 13:32:32;;;;;;;17.43;11.47;;;15.60;99.90;;;;;;4996975;28;20658;-76
2022/03/26 13:35:16;;;;;;;17.40;11.30;;;15.60;99.90;;;;;;5014458;28;20211;-77
2022/03/26 13:38:12;;;;;;;14.63;10.63;;;15.60;99.90;;;;;;5021982;28;20679;-77
2022/03/26 13:40:56;;;;;;;15.53;10.00;;;15.60;99.90;;;;;;5015317;28;20208;-76
2022/03/26 13:43:41;;;;;;;13.03;8.80;;;15.60;99.90;;;;;;5017414;28;20695;-78
2022/03/26 13:46:26;;;;;;;12.87;8.90;;;15.70;99.90;;;;;;5010870;28;20194;-76
2022/03/26 13:49:32;;;;;;;13.97;9.67;;;15.70;99.90;;;;;;5017441;28;20208;-76
2022/03/26 13:52:27;;;;;;;12.10;8.20;;;15.80;99.90;;;;;;5013381;28;20263;-77
2022/03/26 13:55:31;;;;;;;11.37;8.27;;;15.70;99.90;;;;;;5009907;28;20287;-77
2022/03/26 13:58:22;;;;;;;10.13;7.43;;;15.80;99.90;;;;;;5032430;28;20322;-78
2022/03/26 14:01:08;;;;;;;12.13;8.37;;;15.90;99.90;;;;;;5011427;28;20716;-76
2022/03/26 14:03:57;;;;;;;12.00;8.63;;;15.90;99.90;;;;;;5013289;28;20176;-77
2022/03/26 14:06:41;;;;;;;14.27;8.00;;;15.90;99.90;;;;;;5019839;28;20239;-77
2022/03/26 14:09:29;;;;;;;11.20;7.97;;;15.90;99.90;;;;;;5018634;28;20251;-76
2022/03/26 14:12:13;;;;;;;11.83;8.40;;;15.90;99.90;;;;;;5013813;28;20188;-76
2022/03/26 14:14:58;;;;;;;12.53;8.43;;;15.80;99.90;;;;;;5011555;28;20219;-77
2022/03/26 14:17:41;;;;;;;10.93;7.23;;;15.90;99.90;;;;;;5014941;28;20196;-76